sensor_id;sensor_type;location;lat;lon;timestamp;pressure;altitude;pressure_sealevel;temperature;humidity
706;BME280;21234;48.690;9.016;2023-02-28T00:00:24;96684.63;;;-2.84;61.82
706;BME280;21234;48.690;9.016;2023-02-28T00:02:51;96680.47;;;-2.86;62.08
706;BME280;21234;48.690;9.016;2023-02-28T00:05:21;96682.66;;;-2.82;62.04
706;BME280;21234;48.690;9.016;2023-02-28T00:07:49;96688.44;;;-2.86;61.93
706;BME280;21234;48.690;9.016;2023-02-28T00:10:17;96689.94;;;-2.84;61.83
706;BME280;21234;48.690;9.016;2023-02-28T00:12:46;96686.44;;;-2.84;62.33
706;BME280;21234;48.690;9.016;2023-02-28T00:15:13;96684.56;;;-2.92;62.39
706;BME280;21234;48.690;9.016;2023-02-28T00:17:39;96686.63;;;-2.86;62.63
706;BME280;21234;48.690;9.016;2023-02-28T00:20:07;96693.72;;;-2.94;62.34
706;BME280;21234;48.690;9.016;2023-02-28T00:22:39;96684.31;;;-3.07;62.27
706;BME280;21234;48.690;9.016;2023-02-28T00:25:07;96678.91;;;-2.97;62.88
706;BME280;21234;48.690;9.016;2023-02-28T00:27:34;96681.19;;;-3.02;62.80
706;BME280;21234;48.690;9.016;2023-02-28T00:30:01;96679.06;;;-2.98;63.19
706;BME280;21234;48.690;9.016;2023-02-28T00:32:28;96681.03;;;-3.00;63.48
706;BME280;21234;48.690;9.016;2023-02-28T00:34:55;96676.41;;;-2.98;63.37
706;BME280;21234;48.690;9.016;2023-02-28T00:37:22;96679.84;;;-3.06;63.39
706;BME280;21234;48.690;9.016;2023-02-28T00:39:50;96678.84;;;-3.05;63.78
706;BME280;21234;48.690;9.016;2023-02-28T00:42:17;96685.16;;;-3.06;64.25
706;BME280;21234;48.690;9.016;2023-02-28T00:44:43;96683.78;;;-3.10;64.27
706;BME280;21234;48.690;9.016;2023-02-28T00:47:10;96683.50;;;-3.07;64.49
706;BME280;21234;48.690;9.016;2023-02-28T00:49:37;96682.34;;;-3.05;64.21
706;BME280;21234;48.690;9.016;2023-02-28T00:52:05;96678.78;;;-3.13;64.35
706;BME280;21234;48.690;9.016;2023-02-28T00:54:31;96680.25;;;-3.19;64.22
706;BME280;21234;48.690;9.016;2023-02-28T00:56:59;96671.94;;;-3.16;64.50
706;BME280;21234;48.690;9.016;2023-02-28T00:59:26;96670.28;;;-3.17;64.15
706;BME280;21234;48.690;9.016;2023-02-28T01:01:53;96671.28;;;-3.18;64.37
706;BME280;21234;48.690;9.016;2023-02-28T01:04:20;96676.56;;;-3.26;64.75
706;BME280;21234;48.690;9.016;2023-02-28T01:06:46;96668.19;;;-3.31;64.73
706;BME280;21234;48.690;9.016;2023-02-28T01:09:13;96676.19;;;-3.31;64.82
706;BME280;21234;48.690;9.016;2023-02-28T01:11:41;96670.84;;;-3.31;64.70
706;BME280;21234;48.690;9.016;2023-02-28T01:14:12;96671.84;;;-3.32;65.71
706;BME280;21234;48.690;9.016;2023-02-28T01:16:39;96668.88;;;-3.29;65.53
706;BME280;21234;48.690;9.016;2023-02-28T01:19:06;96669.81;;;-3.38;65.70
706;BME280;21234;48.690;9.016;2023-02-28T01:21:32;96669.66;;;-3.36;65.47
706;BME280;21234;48.690;9.016;2023-02-28T01:24:00;96664.84;;;-3.33;65.78
706;BME280;21234;48.690;9.016;2023-02-28T01:26:27;96667.00;;;-3.36;65.79
706;BME280;21234;48.690;9.016;2023-02-28T01:28:54;96658.88;;;-3.35;66.47
706;BME280;21234;48.690;9.016;2023-02-28T01:31:22;96660.53;;;-3.34;66.21
706;BME280;21234;48.690;9.016;2023-02-28T01:33:49;96657.50;;;-3.39;66.45
706;BME280;21234;48.690;9.016;2023-02-28T01:36:17;96658.78;;;-3.43;67.33
706;BME280;21234;48.690;9.016;2023-02-28T01:38:45;96663.88;;;-3.50;67.73
706;BME280;21234;48.690;9.016;2023-02-28T01:41:15;96659.84;;;-3.54;68.04
706;BME280;21234;48.690;9.016;2023-02-28T01:43:58;96662.06;;;-3.49;67.99
706;BME280;21234;48.690;9.016;2023-02-28T01:46:26;96656.06;;;-3.51;68.08
706;BME280;21234;48.690;9.016;2023-02-28T01:48:56;96660.00;;;-3.55;68.40
706;BME280;21234;48.690;9.016;2023-02-28T01:51:26;96656.16;;;-3.61;68.48
706;BME280;21234;48.690;9.016;2023-02-28T01:53:58;96652.88;;;-3.55;68.76
706;BME280;21234;48.690;9.016;2023-02-28T01:56:28;96649.88;;;-3.60;69.52
706;BME280;21234;48.690;9.016;2023-02-28T01:58:57;96648.03;;;-3.59;69.25
706;BME280;21234;48.690;9.016;2023-02-28T02:01:27;96647.06;;;-3.58;69.28
706;BME280;21234;48.690;9.016;2023-02-28T02:03:55;96645.31;;;-3.67;69.92
706;BME280;21234;48.690;9.016;2023-02-28T02:06:22;96639.38;;;-3.61;69.65
706;BME280;21234;48.690;9.016;2023-02-28T02:08:50;96641.50;;;-3.65;70.26
706;BME280;21234;48.690;9.016;2023-02-28T02:11:20;96642.66;;;-3.67;70.66
706;BME280;21234;48.690;9.016;2023-02-28T02:14:13;96639.84;;;-3.66;70.86
706;BME280;21234;48.690;9.016;2023-02-28T02:16:54;96634.84;;;-3.69;70.57
706;BME280;21234;48.690;9.016;2023-02-28T02:22:34;96635.06;;;-3.62;71.30
706;BME280;21234;48.690;9.016;2023-02-28T02:25:12;96625.72;;;-3.66;70.87
706;BME280;21234;48.690;9.016;2023-02-28T02:31:05;96627.00;;;-3.70;72.20
706;BME280;21234;48.690;9.016;2023-02-28T02:34:06;96621.16;;;-3.74;72.25
706;BME280;21234;48.690;9.016;2023-02-28T02:36:37;96623.91;;;-3.66;72.56
706;BME280;21234;48.690;9.016;2023-02-28T02:39:13;96621.56;;;-3.69;72.84
706;BME280;21234;48.690;9.016;2023-02-28T02:41:46;96624.06;;;-3.67;73.03
706;BME280;21234;48.690;9.016;2023-02-28T02:44:18;96623.44;;;-3.61;72.45
706;BME280;21234;48.690;9.016;2023-02-28T02:46:48;96631.41;;;-3.61;72.56
706;BME280;21234;48.690;9.016;2023-02-28T02:49:22;96628.59;;;-3.60;73.37
706;BME280;21234;48.690;9.016;2023-02-28T02:51:52;96624.28;;;-3.61;73.37
706;BME280;21234;48.690;9.016;2023-02-28T02:54:22;96629.44;;;-3.59;73.39
706;BME280;21234;48.690;9.016;2023-02-28T02:56:55;96634.41;;;-3.56;73.31
706;BME280;21234;48.690;9.016;2023-02-28T02:59:24;96636.44;;;-3.58;73.51
706;BME280;21234;48.690;9.016;2023-02-28T03:01:54;96631.63;;;-3.55;74.31
706;BME280;21234;48.690;9.016;2023-02-28T03:04:24;96628.28;;;-3.57;73.76
706;BME280;21234;48.690;9.016;2023-02-28T03:06:53;96638.59;;;-3.54;74.82
706;BME280;21234;48.690;9.016;2023-02-28T03:09:20;96639.28;;;-3.52;74.33
706;BME280;21234;48.690;9.016;2023-02-28T03:11:47;96631.84;;;-3.48;74.85
706;BME280;21234;48.690;9.016;2023-02-28T03:14:27;96641.31;;;-3.46;74.38
706;BME280;21234;48.690;9.016;2023-02-28T03:20:16;96629.72;;;-3.45;75.10
706;BME280;21234;48.690;9.016;2023-02-28T03:22:51;96635.19;;;-3.46;75.50
706;BME280;21234;48.690;9.016;2023-02-28T03:25:26;96637.84;;;-3.46;75.46
706;BME280;21234;48.690;9.016;2023-02-28T03:28:00;96630.00;;;-3.48;75.93
706;BME280;21234;48.690;9.016;2023-02-28T03:30:35;96625.59;;;-3.39;75.44
706;BME280;21234;48.690;9.016;2023-02-28T03:33:07;96633.41;;;-3.38;75.46
706;BME280;21234;48.690;9.016;2023-02-28T03:35:39;96627.41;;;-3.40;75.77
706;BME280;21234;48.690;9.016;2023-02-28T03:38:10;96627.72;;;-3.43;76.34
706;BME280;21234;48.690;9.016;2023-02-28T03:40:44;96618.75;;;-3.42;76.18
706;BME280;21234;48.690;9.016;2023-02-28T03:43:16;96624.16;;;-3.33;75.74
706;BME280;21234;48.690;9.016;2023-02-28T03:45:45;96619.50;;;-3.31;75.80
706;BME280;21234;48.690;9.016;2023-02-28T03:48:19;96631.28;;;-3.34;76.41
706;BME280;21234;48.690;9.016;2023-02-28T03:50:52;96625.50;;;-3.29;76.09
706;BME280;21234;48.690;9.016;2023-02-28T03:53:25;96626.19;;;-3.27;76.73
706;BME280;21234;48.690;9.016;2023-02-28T03:55:54;96622.69;;;-3.28;76.34
706;BME280;21234;48.690;9.016;2023-02-28T03:58:27;96628.63;;;-3.34;76.38
706;BME280;21234;48.690;9.016;2023-02-28T04:01:00;96627.34;;;-3.30;76.69
706;BME280;21234;48.690;9.016;2023-02-28T04:03:35;96625.28;;;-3.36;77.45
706;BME280;21234;48.690;9.016;2023-02-28T04:06:04;96628.41;;;-3.41;78.05
706;BME280;21234;48.690;9.016;2023-02-28T04:08:32;96626.13;;;-3.35;78.28
706;BME280;21234;48.690;9.016;2023-02-28T04:11:01;96627.94;;;-3.36;78.42
706;BME280;21234;48.690;9.016;2023-02-28T04:13:31;96632.13;;;-3.33;78.74
706;BME280;21234;48.690;9.016;2023-02-28T04:15:57;96634.31;;;-3.29;78.32
706;BME280;21234;48.690;9.016;2023-02-28T04:18:24;96624.47;;;-3.36;78.91
706;BME280;21234;48.690;9.016;2023-02-28T04:20:51;96628.31;;;-3.31;78.61
706;BME280;21234;48.690;9.016;2023-02-28T04:23:19;96627.41;;;-3.40;79.16
706;BME280;21234;48.690;9.016;2023-02-28T04:25:46;96629.25;;;-3.40;79.90
706;BME280;21234;48.690;9.016;2023-02-28T04:28:12;96631.66;;;-3.29;79.32
706;BME280;21234;48.690;9.016;2023-02-28T04:30:39;96629.84;;;-3.28;79.28
706;BME280;21234;48.690;9.016;2023-02-28T04:33:06;96630.84;;;-3.21;80.14
706;BME280;21234;48.690;9.016;2023-02-28T04:35:32;96630.19;;;-3.23;79.26
706;BME280;21234;48.690;9.016;2023-02-28T04:37:59;96631.00;;;-3.23;79.61
706;BME280;21234;48.690;9.016;2023-02-28T04:40:27;96627.03;;;-3.27;79.24
706;BME280;21234;48.690;9.016;2023-02-28T04:42:54;96625.84;;;-3.24;79.29
706;BME280;21234;48.690;9.016;2023-02-28T04:45:21;96629.03;;;-3.21;79.20
706;BME280;21234;48.690;9.016;2023-02-28T04:47:47;96628.19;;;-3.21;79.49
706;BME280;21234;48.690;9.016;2023-02-28T04:50:14;96628.03;;;-3.20;79.81
706;BME280;21234;48.690;9.016;2023-02-28T04:52:41;96621.94;;;-3.12;79.22
706;BME280;21234;48.690;9.016;2023-02-28T04:55:08;96621.47;;;-3.08;79.33
706;BME280;21234;48.690;9.016;2023-02-28T04:57:37;96624.97;;;-3.07;79.35
706;BME280;21234;48.690;9.016;2023-02-28T05:00:04;96628.25;;;-3.13;79.61
706;BME280;21234;48.690;9.016;2023-02-28T05:02:37;96621.94;;;-3.12;79.22
706;BME280;21234;48.690;9.016;2023-02-28T05:05:05;96625.59;;;-3.13;79.16
706;BME280;21234;48.690;9.016;2023-02-28T05:07:32;96623.84;;;-3.05;78.91
706;BME280;21234;48.690;9.016;2023-02-28T05:09:58;96630.13;;;-3.06;78.81
706;BME280;21234;48.690;9.016;2023-02-28T05:12:25;96618.34;;;-3.03;79.01
706;BME280;21234;48.690;9.016;2023-02-28T05:14:53;96634.09;;;-3.10;79.07
706;BME280;21234;48.690;9.016;2023-02-28T05:17:20;96632.44;;;-3.11;79.02
706;BME280;21234;48.690;9.016;2023-02-28T05:19:46;96636.25;;;-3.13;78.82
706;BME280;21234;48.690;9.016;2023-02-28T05:22:14;96636.75;;;-3.10;79.64
706;BME280;21234;48.690;9.016;2023-02-28T05:24:42;96639.66;;;-3.21;79.24
706;BME280;21234;48.690;9.016;2023-02-28T05:27:09;96644.06;;;-3.12;80.44
706;BME280;21234;48.690;9.016;2023-02-28T05:29:35;96643.66;;;-2.99;80.75
706;BME280;21234;48.690;9.016;2023-02-28T05:32:08;96642.34;;;-2.95;80.12
706;BME280;21234;48.690;9.016;2023-02-28T05:34:36;96649.50;;;-2.95;79.51
706;BME280;21234;48.690;9.016;2023-02-28T05:37:03;96645.16;;;-2.96;80.18
706;BME280;21234;48.690;9.016;2023-02-28T05:39:29;96643.44;;;-3.06;80.22
706;BME280;21234;48.690;9.016;2023-02-28T05:41:56;96643.38;;;-3.14;80.28
706;BME280;21234;48.690;9.016;2023-02-28T05:44:23;96638.53;;;-3.18;80.95
706;BME280;21234;48.690;9.016;2023-02-28T05:46:50;96640.94;;;-3.07;81.12
706;BME280;21234;48.690;9.016;2023-02-28T05:49:18;96642.13;;;-3.01;80.93
706;BME280;21234;48.690;9.016;2023-02-28T05:51:45;96637.81;;;-3.02;81.39
706;BME280;21234;48.690;9.016;2023-02-28T05:54:12;96642.09;;;-3.10;81.52
706;BME280;21234;48.690;9.016;2023-02-28T05:56:39;96642.91;;;-3.09;81.13
706;BME280;21234;48.690;9.016;2023-02-28T05:59:06;96650.44;;;-3.05;81.49
706;BME280;21234;48.690;9.016;2023-02-28T06:01:34;96635.00;;;-3.01;82.48
706;BME280;21234;48.690;9.016;2023-02-28T06:04:03;96644.19;;;-2.95;81.94
706;BME280;21234;48.690;9.016;2023-02-28T06:06:31;96639.16;;;-2.98;81.62
706;BME280;21234;48.690;9.016;2023-02-28T06:08:59;96641.31;;;-3.02;82.04
706;BME280;21234;48.690;9.016;2023-02-28T06:11:27;96647.63;;;-3.03;82.42
706;BME280;21234;48.690;9.016;2023-02-28T06:13:54;96650.59;;;-3.06;83.68
706;BME280;21234;48.690;9.016;2023-02-28T06:16:22;96651.41;;;-3.06;83.30
706;BME280;21234;48.690;9.016;2023-02-28T06:18:48;96654.75;;;-3.03;84.04
706;BME280;21234;48.690;9.016;2023-02-28T06:21:15;96653.91;;;-3.04;84.00
706;BME280;21234;48.690;9.016;2023-02-28T06:23:43;96663.28;;;-2.92;84.36
706;BME280;21234;48.690;9.016;2023-02-28T06:26:11;96662.28;;;-2.91;84.26
706;BME280;21234;48.690;9.016;2023-02-28T06:28:37;96664.81;;;-3.15;84.36
706;BME280;21234;48.690;9.016;2023-02-28T06:31:08;96668.84;;;-3.11;85.06
706;BME280;21234;48.690;9.016;2023-02-28T06:33:35;96675.19;;;-3.04;85.80
706;BME280;21234;48.690;9.016;2023-02-28T06:36:02;96671.09;;;-2.98;86.12
706;BME280;21234;48.690;9.016;2023-02-28T06:38:29;96678.22;;;-2.99;85.63
706;BME280;21234;48.690;9.016;2023-02-28T06:40:59;96672.59;;;-2.96;85.10
706;BME280;21234;48.690;9.016;2023-02-28T06:43:28;96670.81;;;-3.13;84.80
706;BME280;21234;48.690;9.016;2023-02-28T06:45:55;96667.59;;;-2.99;85.10
706;BME280;21234;48.690;9.016;2023-02-28T06:48:22;96668.59;;;-2.92;85.81
706;BME280;21234;48.690;9.016;2023-02-28T06:50:49;96679.63;;;-2.87;85.48
706;BME280;21234;48.690;9.016;2023-02-28T06:53:16;96671.69;;;-2.79;84.49
706;BME280;21234;48.690;9.016;2023-02-28T06:55:42;96680.66;;;-2.80;84.02
706;BME280;21234;48.690;9.016;2023-02-28T06:58:11;96683.63;;;-2.83;84.56
706;BME280;21234;48.690;9.016;2023-02-28T07:00:41;96681.19;;;-2.76;83.71
706;BME280;21234;48.690;9.016;2023-02-28T07:03:07;96685.56;;;-2.67;83.75
706;BME280;21234;48.690;9.016;2023-02-28T07:05:35;96683.91;;;-2.68;83.56
706;BME280;21234;48.690;9.016;2023-02-28T07:08:01;96689.75;;;-2.64;83.10
706;BME280;21234;48.690;9.016;2023-02-28T07:10:28;96688.75;;;-2.63;82.78
706;BME280;21234;48.690;9.016;2023-02-28T07:12:55;96686.09;;;-2.63;81.99
706;BME280;21234;48.690;9.016;2023-02-28T07:15:23;96686.63;;;-2.60;81.87
706;BME280;21234;48.690;9.016;2023-02-28T07:17:50;96691.72;;;-2.66;81.03
706;BME280;21234;48.690;9.016;2023-02-28T07:20:17;96699.03;;;-2.68;80.91
706;BME280;21234;48.690;9.016;2023-02-28T07:22:44;96693.78;;;-2.60;80.99
706;BME280;21234;48.690;9.016;2023-02-28T07:25:10;96697.06;;;-2.58;80.33
706;BME280;21234;48.690;9.016;2023-02-28T07:27:37;96702.91;;;-2.55;80.72
706;BME280;21234;48.690;9.016;2023-02-28T07:30:05;96698.31;;;-2.45;81.33
706;BME280;21234;48.690;9.016;2023-02-28T07:32:33;96698.16;;;-2.43;80.07
706;BME280;21234;48.690;9.016;2023-02-28T07:35:03;96700.94;;;-2.53;79.92
706;BME280;21234;48.690;9.016;2023-02-28T07:37:30;96702.75;;;-2.53;78.83
706;BME280;21234;48.690;9.016;2023-02-28T07:40:02;96696.13;;;-2.49;78.77
706;BME280;21234;48.690;9.016;2023-02-28T07:42:31;96697.31;;;-2.44;78.14
706;BME280;21234;48.690;9.016;2023-02-28T07:44:58;96693.91;;;-2.28;78.39
706;BME280;21234;48.690;9.016;2023-02-28T07:47:25;96696.75;;;-2.29;78.53
706;BME280;21234;48.690;9.016;2023-02-28T07:49:53;96690.22;;;-2.35;77.27
706;BME280;21234;48.690;9.016;2023-02-28T07:52:20;96695.91;;;-2.30;77.93
706;BME280;21234;48.690;9.016;2023-02-28T07:54:48;96698.47;;;-2.46;76.51
706;BME280;21234;48.690;9.016;2023-02-28T07:57:15;96703.84;;;-2.38;76.43
706;BME280;21234;48.690;9.016;2023-02-28T07:59:42;96698.84;;;-2.41;76.28
706;BME280;21234;48.690;9.016;2023-02-28T08:02:11;96710.22;;;-2.23;77.26
706;BME280;21234;48.690;9.016;2023-02-28T08:04:38;96707.75;;;-2.16;76.66
706;BME280;21234;48.690;9.016;2023-02-28T08:07:07;96711.41;;;-2.17;75.33
706;BME280;21234;48.690;9.016;2023-02-28T08:09:34;96717.31;;;-2.06;76.27
706;BME280;21234;48.690;9.016;2023-02-28T08:12:01;96714.75;;;-2.15;74.46
706;BME280;21234;48.690;9.016;2023-02-28T08:14:28;96712.88;;;-2.31;74.09
706;BME280;21234;48.690;9.016;2023-02-28T08:16:55;96725.19;;;-2.30;75.05
706;BME280;21234;48.690;9.016;2023-02-28T08:19:21;96719.53;;;-2.27;74.43
706;BME280;21234;48.690;9.016;2023-02-28T08:21:48;96715.19;;;-2.36;74.08
706;BME280;21234;48.690;9.016;2023-02-28T08:24:16;96714.19;;;-2.27;74.55
706;BME280;21234;48.690;9.016;2023-02-28T08:26:43;96718.88;;;-2.29;74.42
706;BME280;21234;48.690;9.016;2023-02-28T08:29:10;96720.72;;;-2.29;74.02
706;BME280;21234;48.690;9.016;2023-02-28T08:31:37;96723.44;;;-2.13;74.36
706;BME280;21234;48.690;9.016;2023-02-28T08:34:05;96715.59;;;-2.15;73.66
706;BME280;21234;48.690;9.016;2023-02-28T08:36:32;96722.53;;;-2.30;73.40
706;BME280;21234;48.690;9.016;2023-02-28T08:38:59;96720.56;;;-2.28;73.09
706;BME280;21234;48.690;9.016;2023-02-28T08:41:27;96721.69;;;-2.30;74.03
706;BME280;21234;48.690;9.016;2023-02-28T08:43:53;96717.16;;;-2.38;74.47
706;BME280;21234;48.690;9.016;2023-02-28T08:46:20;96725.84;;;-2.36;73.64
706;BME280;21234;48.690;9.016;2023-02-28T08:48:47;96730.75;;;-2.15;75.31
706;BME280;21234;48.690;9.016;2023-02-28T08:51:17;96732.22;;;-2.21;73.86
706;BME280;21234;48.690;9.016;2023-02-28T08:53:51;96729.59;;;-2.13;74.63
706;BME280;21234;48.690;9.016;2023-02-28T08:56:18;96735.47;;;-1.93;75.08
706;BME280;21234;48.690;9.016;2023-02-28T08:58:49;96740.81;;;-2.01;73.43
706;BME280;21234;48.690;9.016;2023-02-28T09:01:17;96739.25;;;-2.12;73.37
706;BME280;21234;48.690;9.016;2023-02-28T09:03:45;96744.06;;;-2.15;74.18
706;BME280;21234;48.690;9.016;2023-02-28T09:06:13;96742.31;;;-1.98;74.64
706;BME280;21234;48.690;9.016;2023-02-28T09:08:41;96740.69;;;-1.83;74.17
706;BME280;21234;48.690;9.016;2023-02-28T09:11:09;96742.75;;;-1.69;73.86
706;BME280;21234;48.690;9.016;2023-02-28T09:13:36;96753.66;;;-1.88;72.56
706;BME280;21234;48.690;9.016;2023-02-28T09:16:06;96749.53;;;-1.75;73.68
706;BME280;21234;48.690;9.016;2023-02-28T09:18:34;96757.03;;;-1.78;73.00
706;BME280;21234;48.690;9.016;2023-02-28T09:21:03;96754.38;;;-1.62;73.43
706;BME280;21234;48.690;9.016;2023-02-28T09:23:30;96755.22;;;-1.61;73.39
706;BME280;21234;48.690;9.016;2023-02-28T09:25:56;96755.56;;;-1.73;72.28
706;BME280;21234;48.690;9.016;2023-02-28T09:28:23;96755.13;;;-1.94;71.98
706;BME280;21234;48.690;9.016;2023-02-28T09:30:52;96741.88;;;-1.78;73.17
706;BME280;21234;48.690;9.016;2023-02-28T09:33:21;96748.00;;;-1.85;72.19
706;BME280;21234;48.690;9.016;2023-02-28T09:35:48;96750.66;;;-1.85;72.20
706;BME280;21234;48.690;9.016;2023-02-28T09:38:16;96749.63;;;-2.00;72.26
706;BME280;21234;48.690;9.016;2023-02-28T09:40:49;96750.50;;;-1.84;72.61
706;BME280;21234;48.690;9.016;2023-02-28T09:43:18;96753.06;;;-1.58;73.09
706;BME280;21234;48.690;9.016;2023-02-28T09:45:48;96763.06;;;-1.60;71.05
706;BME280;21234;48.690;9.016;2023-02-28T09:48:20;96764.25;;;-1.54;71.39
706;BME280;21234;48.690;9.016;2023-02-28T09:50:50;96762.72;;;-1.73;70.55
706;BME280;21234;48.690;9.016;2023-02-28T09:53:22;96756.34;;;-1.80;71.42
706;BME280;21234;48.690;9.016;2023-02-28T09:55:55;96765.69;;;-1.76;70.58
706;BME280;21234;48.690;9.016;2023-02-28T09:58:30;96750.72;;;-1.69;71.44
706;BME280;21234;48.690;9.016;2023-02-28T10:01:03;96761.59;;;-1.46;71.64
706;BME280;21234;48.690;9.016;2023-02-28T10:03:39;96757.56;;;-1.58;70.12
706;BME280;21234;48.690;9.016;2023-02-28T10:06:12;96760.75;;;-1.63;69.88
706;BME280;21234;48.690;9.016;2023-02-28T10:08:43;96769.06;;;-1.58;69.81
706;BME280;21234;48.690;9.016;2023-02-28T10:11:15;96769.78;;;-1.40;71.04
706;BME280;21234;48.690;9.016;2023-02-28T10:13:50;96770.63;;;-1.39;70.32
706;BME280;21234;48.690;9.016;2023-02-28T10:16:24;96771.81;;;-1.33;69.57
706;BME280;21234;48.690;9.016;2023-02-28T10:18:57;96778.81;;;-1.24;69.73
706;BME280;21234;48.690;9.016;2023-02-28T10:21:28;96783.16;;;-1.23;69.11
706;BME280;21234;48.690;9.016;2023-02-28T10:24:03;96785.81;;;-1.31;68.88
706;BME280;21234;48.690;9.016;2023-02-28T10:26:32;96787.25;;;-1.53;68.77
706;BME280;21234;48.690;9.016;2023-02-28T10:29:00;96781.81;;;-1.27;69.25
706;BME280;21234;48.690;9.016;2023-02-28T10:31:28;96785.84;;;-1.15;68.07
706;BME280;21234;48.690;9.016;2023-02-28T10:33:56;96781.00;;;-0.95;68.34
706;BME280;21234;48.690;9.016;2023-02-28T10:36:23;96777.53;;;-0.72;68.24
706;BME280;21234;48.690;9.016;2023-02-28T10:38:50;96777.69;;;-0.65;66.81
706;BME280;21234;48.690;9.016;2023-02-28T10:41:26;96776.34;;;-0.77;66.02
706;BME280;21234;48.690;9.016;2023-02-28T10:44:12;96774.47;;;-0.52;67.14
706;BME280;21234;48.690;9.016;2023-02-28T10:46:40;96774.97;;;-0.49;65.60
706;BME280;21234;48.690;9.016;2023-02-28T10:49:13;96774.31;;;-0.59;66.20
706;BME280;21234;48.690;9.016;2023-02-28T10:51:41;96780.16;;;-0.63;64.78
706;BME280;21234;48.690;9.016;2023-02-28T10:54:15;96771.94;;;-0.29;64.93
706;BME280;21234;48.690;9.016;2023-02-28T10:56:42;96779.09;;;-0.22;63.75
706;BME280;21234;48.690;9.016;2023-02-28T10:59:27;96767.03;;;-0.02;62.75
706;BME280;21234;48.690;9.016;2023-02-28T11:01:54;96764.75;;;0.57;63.24
706;BME280;21234;48.690;9.016;2023-02-28T11:04:35;96777.38;;;0.41;60.61
706;BME280;21234;48.690;9.016;2023-02-28T11:07:05;96768.13;;;0.51;61.70
706;BME280;21234;48.690;9.016;2023-02-28T11:09:34;96775.44;;;0.26;60.33
706;BME280;21234;48.690;9.016;2023-02-28T11:12:06;96774.06;;;-0.17;61.10
706;BME280;21234;48.690;9.016;2023-02-28T11:14:40;96777.06;;;-0.04;62.45
706;BME280;21234;48.690;9.016;2023-02-28T11:17:14;96785.81;;;-0.34;61.98
706;BME280;21234;48.690;9.016;2023-02-28T11:19:50;96785.31;;;-0.38;62.27
706;BME280;21234;48.690;9.016;2023-02-28T11:22:19;96781.56;;;-0.04;62.37
706;BME280;21234;48.690;9.016;2023-02-28T11:24:49;96773.09;;;0.23;61.47
706;BME280;21234;48.690;9.016;2023-02-28T11:27:46;96779.13;;;0.56;60.36
706;BME280;21234;48.690;9.016;2023-02-28T11:30:30;96780.47;;;0.83;60.04
706;BME280;21234;48.690;9.016;2023-02-28T11:32:57;96782.81;;;0.86;59.20
706;BME280;21234;48.690;9.016;2023-02-28T11:35:29;96778.94;;;0.89;59.64
706;BME280;21234;48.690;9.016;2023-02-28T11:37:57;96774.34;;;0.75;58.49
706;BME280;21234;48.690;9.016;2023-02-28T11:40:30;96767.53;;;0.95;58.56
706;BME280;21234;48.690;9.016;2023-02-28T11:43:06;96766.44;;;1.27;58.67
706;BME280;21234;48.690;9.016;2023-02-28T11:45:54;96765.78;;;1.25;58.06
706;BME280;21234;48.690;9.016;2023-02-28T11:48:28;96760.13;;;1.57;58.69
706;BME280;21234;48.690;9.016;2023-02-28T11:51:06;96760.47;;;1.92;57.15
706;BME280;21234;48.690;9.016;2023-02-28T11:53:55;96760.63;;;1.90;56.59
706;BME280;21234;48.690;9.016;2023-02-28T11:56:30;96766.72;;;1.84;57.67
706;BME280;21234;48.690;9.016;2023-02-28T11:59:08;96756.66;;;1.86;57.30
706;BME280;21234;48.690;9.016;2023-02-28T12:01:49;96761.09;;;2.09;57.70
706;BME280;21234;48.690;9.016;2023-02-28T12:04:28;96756.53;;;2.53;57.92
706;BME280;21234;48.690;9.016;2023-02-28T12:07:09;96750.16;;;2.76;57.42
706;BME280;21234;48.690;9.016;2023-02-28T12:09:49;96748.94;;;2.78;55.80
706;BME280;21234;48.690;9.016;2023-02-28T12:12:37;96749.56;;;2.59;54.79
706;BME280;21234;48.690;9.016;2023-02-28T12:15:16;96750.22;;;2.46;55.70
706;BME280;21234;48.690;9.016;2023-02-28T12:17:58;96752.69;;;2.26;55.77
706;BME280;21234;48.690;9.016;2023-02-28T12:20:32;96753.78;;;2.17;56.54
706;BME280;21234;48.690;9.016;2023-02-28T12:23:19;96755.81;;;2.15;57.25
706;BME280;21234;48.690;9.016;2023-02-28T12:26:00;96749.63;;;2.15;57.73
706;BME280;21234;48.690;9.016;2023-02-28T12:28:31;96757.09;;;2.34;56.31
706;BME280;21234;48.690;9.016;2023-02-28T12:31:04;96746.25;;;2.42;57.22
706;BME280;21234;48.690;9.016;2023-02-28T12:33:36;96756.66;;;2.16;55.09
706;BME280;21234;48.690;9.016;2023-02-28T12:36:09;96750.31;;;1.64;55.45
706;BME280;21234;48.690;9.016;2023-02-28T12:38:41;96749.72;;;1.62;56.89
706;BME280;21234;48.690;9.016;2023-02-28T12:41:12;96735.75;;;2.11;57.62
706;BME280;21234;48.690;9.016;2023-02-28T12:43:43;96733.22;;;2.39;56.29
706;BME280;21234;48.690;9.016;2023-02-28T12:46:14;96727.53;;;2.13;56.02
706;BME280;21234;48.690;9.016;2023-02-28T12:48:45;96725.44;;;2.29;54.32
706;BME280;21234;48.690;9.016;2023-02-28T12:51:15;96726.25;;;2.81;56.11
706;BME280;21234;48.690;9.016;2023-02-28T12:53:57;96717.44;;;3.08;54.83
706;BME280;21234;48.690;9.016;2023-02-28T12:56:36;96715.22;;;3.40;53.37
706;BME280;21234;48.690;9.016;2023-02-28T12:59:11;96717.16;;;3.46;53.16
706;BME280;21234;48.690;9.016;2023-02-28T13:01:53;96711.91;;;3.65;52.75
706;BME280;21234;48.690;9.016;2023-02-28T13:04:43;96705.56;;;3.73;52.02
706;BME280;21234;48.690;9.016;2023-02-28T13:07:33;96711.56;;;3.47;51.64
706;BME280;21234;48.690;9.016;2023-02-28T13:10:07;96707.84;;;3.76;51.38
706;BME280;21234;48.690;9.016;2023-02-28T13:12:35;96709.03;;;3.67;51.91
706;BME280;21234;48.690;9.016;2023-02-28T13:15:06;96703.00;;;3.99;51.24
706;BME280;21234;48.690;9.016;2023-02-28T13:17:38;96700.56;;;4.04;49.92
706;BME280;21234;48.690;9.016;2023-02-28T13:20:15;96712.16;;;4.46;48.24
706;BME280;21234;48.690;9.016;2023-02-28T13:22:44;96707.19;;;4.50;47.92
706;BME280;21234;48.690;9.016;2023-02-28T13:34:40;96705.91;;;5.26;47.09
706;BME280;21234;48.690;9.016;2023-02-28T13:37:33;96706.75;;;5.14;47.20
706;BME280;21234;48.690;9.016;2023-02-28T13:42:49;96711.50;;;5.71;46.25
706;BME280;21234;48.690;9.016;2023-02-28T13:45:25;96702.97;;;7.59;42.24
706;BME280;21234;48.690;9.016;2023-02-28T13:47:54;96704.66;;;8.22;39.21
706;BME280;21234;48.690;9.016;2023-02-28T13:50:27;96706.75;;;8.01;39.92
706;BME280;21234;48.690;9.016;2023-02-28T13:53:25;96711.75;;;7.30;40.26
706;BME280;21234;48.690;9.016;2023-02-28T13:56:03;96700.72;;;9.62;38.31
706;BME280;21234;48.690;9.016;2023-02-28T13:58:43;96712.19;;;9.88;35.93
706;BME280;21234;48.690;9.016;2023-02-28T14:01:28;96708.47;;;10.75;35.32
706;BME280;21234;48.690;9.016;2023-02-28T14:04:11;96691.28;;;11.43;33.76